LFQB 052000Z AUTO 26008KT CAVOK 17/14 Q1023

ElémentsDécodage
LFQB Station météo située sur l'aérodrome de TROYES Barberey
052000Z émis le 05 du mois à 20h00 UTC
AUTO Bulletin édité par un automate
26008KT vent du 260°, 08 noeuds
CAVOK Ceiling And Visibility OK
- Visibilité de 10 Km ou plus
- Pas de nuage au-dessous de 1500m ou au-dessous de l'altitude minimale du secteur la plus élevée (si>1500m) et absence de CB
- pas de temps présent significatif
17/14 température 17°C, point de rosée 14°C
 soit une humidité relative de 83%
Q1023 la pression au niveau de la mer (QNH) est de 1023 hPa